sensor_id;sensor_type;location;lat;lon;timestamp;temperature;humidity
2967;DHT22;1493;51.496;7.210;2022-09-17T00:01:18;12.10;99.90
2967;DHT22;1493;51.496;7.210;2022-09-17T00:03:49;12.00;99.90
2967;DHT22;1493;51.496;7.210;2022-09-17T00:06:17;12.00;99.90
2967;DHT22;1493;51.496;7.210;2022-09-17T00:08:44;11.90;99.90
2967;DHT22;1493;51.496;7.210;2022-09-17T00:11:13;11.90;99.90
2967;DHT22;1493;51.496;7.210;2022-09-17T00:13:41;11.80;99.90
2967;DHT22;1493;51.496;7.210;2022-09-17T00:16:10;11.90;99.90
2967;DHT22;1493;51.496;7.210;2022-09-17T00:18:37;11.90;99.90
2967;DHT22;1493;51.496;7.210;2022-09-17T00:21:14;11.90;99.90
2967;DHT22;1493;51.496;7.210;2022-09-17T00:23:41;11.90;99.90
2967;DHT22;1493;51.496;7.210;2022-09-17T00:26:08;11.80;99.90
2967;DHT22;1493;51.496;7.210;2022-09-17T00:28:35;11.80;99.90
2967;DHT22;1493;51.496;7.210;2022-09-17T00:31:06;11.80;99.90
2967;DHT22;1493;51.496;7.210;2022-09-17T00:33:33;11.80;99.90
2967;DHT22;1493;51.496;7.210;2022-09-17T00:36:01;11.80;99.90
2967;DHT22;1493;51.496;7.210;2022-09-17T00:38:30;11.70;99.90
2967;DHT22;1493;51.496;7.210;2022-09-17T00:40:57;11.70;99.90
2967;DHT22;1493;51.496;7.210;2022-09-17T00:43:36;11.60;99.90
2967;DHT22;1493;51.496;7.210;2022-09-17T00:46:05;11.70;99.90
2967;DHT22;1493;51.496;7.210;2022-09-17T00:48:32;11.70;99.90
2967;DHT22;1493;51.496;7.210;2022-09-17T00:51:00;11.60;99.90
2967;DHT22;1493;51.496;7.210;2022-09-17T00:53:27;11.60;99.90
2967;DHT22;1493;51.496;7.210;2022-09-17T00:56:01;11.50;99.90
2967;DHT22;1493;51.496;7.210;2022-09-17T00:58:30;11.60;99.90
2967;DHT22;1493;51.496;7.210;2022-09-17T01:00:58;11.50;99.90
2967;DHT22;1493;51.496;7.210;2022-09-17T01:03:25;11.50;99.90
2967;DHT22;1493;51.496;7.210;2022-09-17T01:05:58;11.60;99.90
2967;DHT22;1493;51.496;7.210;2022-09-17T01:08:33;11.60;99.90
2967;DHT22;1493;51.496;7.210;2022-09-17T01:11:23;11.60;99.90
2967;DHT22;1493;51.496;7.210;2022-09-17T01:14:02;11.60;99.90
2967;DHT22;1493;51.496;7.210;2022-09-17T01:16:36;11.60;99.90
2967;DHT22;1493;51.496;7.210;2022-09-17T01:19:23;11.60;99.90
2967;DHT22;1493;51.496;7.210;2022-09-17T01:22:00;11.60;99.90
2967;DHT22;1493;51.496;7.210;2022-09-17T01:24:44;11.60;99.90
2967;DHT22;1493;51.496;7.210;2022-09-17T01:27:46;11.60;99.90
2967;DHT22;1493;51.496;7.210;2022-09-17T01:33:14;11.50;99.90
2967;DHT22;1493;51.496;7.210;2022-09-17T01:35:48;11.50;99.90
2967;DHT22;1493;51.496;7.210;2022-09-17T01:38:25;11.50;99.90
2967;DHT22;1493;51.496;7.210;2022-09-17T01:40:55;11.50;99.90
2967;DHT22;1493;51.496;7.210;2022-09-17T01:43:31;11.40;99.90
2967;DHT22;1493;51.496;7.210;2022-09-17T01:46:03;11.40;99.90
2967;DHT22;1493;51.496;7.210;2022-09-17T01:48:39;11.40;99.90
2967;DHT22;1493;51.496;7.210;2022-09-17T01:51:09;11.40;99.90
2967;DHT22;1493;51.496;7.210;2022-09-17T01:53:44;11.50;99.90
2967;DHT22;1493;51.496;7.210;2022-09-17T01:56:15;11.50;99.90
2967;DHT22;1493;51.496;7.210;2022-09-17T01:58:48;11.60;99.90
2967;DHT22;1493;51.496;7.210;2022-09-17T02:01:23;11.50;99.90
2967;DHT22;1493;51.496;7.210;2022-09-17T02:03:55;11.60;99.90
2967;DHT22;1493;51.496;7.210;2022-09-17T02:06:25;11.50;99.90
2967;DHT22;1493;51.496;7.210;2022-09-17T02:08:58;11.60;99.90
2967;DHT22;1493;51.496;7.210;2022-09-17T02:11:26;11.60;99.90
2967;DHT22;1493;51.496;7.210;2022-09-17T02:13:57;11.60;99.90
2967;DHT22;1493;51.496;7.210;2022-09-17T02:16:26;11.50;99.90
2967;DHT22;1493;51.496;7.210;2022-09-17T02:19:02;11.60;99.90
2967;DHT22;1493;51.496;7.210;2022-09-17T02:21:37;11.50;99.90
2967;DHT22;1493;51.496;7.210;2022-09-17T02:24:10;11.60;99.90
2967;DHT22;1493;51.496;7.210;2022-09-17T02:26:44;11.70;99.90
2967;DHT22;1493;51.496;7.210;2022-09-17T02:29:17;11.70;99.90
2967;DHT22;1493;51.496;7.210;2022-09-17T02:31:47;11.80;99.90
2967;DHT22;1493;51.496;7.210;2022-09-17T02:34:15;11.80;99.90
2967;DHT22;1493;51.496;7.210;2022-09-17T02:36:42;11.70;99.90
2967;DHT22;1493;51.496;7.210;2022-09-17T02:39:09;11.80;99.90
2967;DHT22;1493;51.496;7.210;2022-09-17T02:41:43;11.70;99.90
2967;DHT22;1493;51.496;7.210;2022-09-17T02:44:20;11.70;99.90
2967;DHT22;1493;51.496;7.210;2022-09-17T02:47:10;11.60;99.90
2967;DHT22;1493;51.496;7.210;2022-09-17T02:49:58;11.60;99.90
2967;DHT22;1493;51.496;7.210;2022-09-17T02:52:37;11.70;99.90
2967;DHT22;1493;51.496;7.210;2022-09-17T02:55:12;11.70;99.90
2967;DHT22;1493;51.496;7.210;2022-09-17T02:57:46;11.80;99.90
2967;DHT22;1493;51.496;7.210;2022-09-17T03:00:17;11.80;99.90
2967;DHT22;1493;51.496;7.210;2022-09-17T03:02:47;11.80;99.90
2967;DHT22;1493;51.496;7.210;2022-09-17T03:05:18;11.80;99.90
2967;DHT22;1493;51.496;7.210;2022-09-17T03:07:45;11.70;99.90
2967;DHT22;1493;51.496;7.210;2022-09-17T03:10:12;11.70;99.90
2967;DHT22;1493;51.496;7.210;2022-09-17T03:12:40;11.60;99.90
2967;DHT22;1493;51.496;7.210;2022-09-17T03:15:08;11.60;99.90
2967;DHT22;1493;51.496;7.210;2022-09-17T03:17:36;11.70;99.90
2967;DHT22;1493;51.496;7.210;2022-09-17T03:20:03;11.70;99.90
2967;DHT22;1493;51.496;7.210;2022-09-17T03:22:31;11.60;99.90
2967;DHT22;1493;51.496;7.210;2022-09-17T03:24:58;11.60;99.90
2967;DHT22;1493;51.496;7.210;2022-09-17T03:27:24;11.50;99.90
2967;DHT22;1493;51.496;7.210;2022-09-17T03:29:51;11.50;99.90
2967;DHT22;1493;51.496;7.210;2022-09-17T03:32:18;11.50;99.90
2967;DHT22;1493;51.496;7.210;2022-09-17T03:34:45;11.50;99.90
2967;DHT22;1493;51.496;7.210;2022-09-17T03:37:12;11.50;99.90
2967;DHT22;1493;51.496;7.210;2022-09-17T03:39:40;11.60;99.90
2967;DHT22;1493;51.496;7.210;2022-09-17T03:42:07;11.50;99.90
2967;DHT22;1493;51.496;7.210;2022-09-17T03:44:33;11.50;99.90
2967;DHT22;1493;51.496;7.210;2022-09-17T03:47:00;11.50;99.90
2967;DHT22;1493;51.496;7.210;2022-09-17T03:49:27;11.30;99.90
2967;DHT22;1493;51.496;7.210;2022-09-17T03:51:54;11.50;99.90
2967;DHT22;1493;51.496;7.210;2022-09-17T03:54:21;11.50;99.90
2967;DHT22;1493;51.496;7.210;2022-09-17T03:56:49;11.50;99.90
2967;DHT22;1493;51.496;7.210;2022-09-17T03:59:15;11.60;99.90
2967;DHT22;1493;51.496;7.210;2022-09-17T04:01:42;11.60;99.90
2967;DHT22;1493;51.496;7.210;2022-09-17T04:04:09;11.50;99.90
2967;DHT22;1493;51.496;7.210;2022-09-17T04:06:36;11.60;99.90
2967;DHT22;1493;51.496;7.210;2022-09-17T04:09:03;11.60;99.90
2967;DHT22;1493;51.496;7.210;2022-09-17T04:11:30;11.50;99.90
2967;DHT22;1493;51.496;7.210;2022-09-17T04:13:58;11.60;99.90
2967;DHT22;1493;51.496;7.210;2022-09-17T04:16:25;11.60;99.90
2967;DHT22;1493;51.496;7.210;2022-09-17T04:18:51;11.50;99.90
2967;DHT22;1493;51.496;7.210;2022-09-17T04:21:18;11.40;99.90
2967;DHT22;1493;51.496;7.210;2022-09-17T04:23:45;11.40;99.90
2967;DHT22;1493;51.496;7.210;2022-09-17T04:26:12;11.30;99.90
2967;DHT22;1493;51.496;7.210;2022-09-17T04:28:39;11.40;99.90
2967;DHT22;1493;51.496;7.210;2022-09-17T04:31:07;11.40;99.90
2967;DHT22;1493;51.496;7.210;2022-09-17T04:33:34;11.40;99.90
2967;DHT22;1493;51.496;7.210;2022-09-17T04:36:02;11.50;99.90
2967;DHT22;1493;51.496;7.210;2022-09-17T04:38:29;11.40;99.90
2967;DHT22;1493;51.496;7.210;2022-09-17T04:40:55;11.40;99.90
2967;DHT22;1493;51.496;7.210;2022-09-17T04:43:23;11.40;99.90
2967;DHT22;1493;51.496;7.210;2022-09-17T04:45:49;11.40;99.90
2967;DHT22;1493;51.496;7.210;2022-09-17T04:48:17;11.50;99.90
2967;DHT22;1493;51.496;7.210;2022-09-17T04:50:44;11.50;99.90
2967;DHT22;1493;51.496;7.210;2022-09-17T04:53:11;11.50;99.90
2967;DHT22;1493;51.496;7.210;2022-09-17T04:55:38;11.50;99.90
2967;DHT22;1493;51.496;7.210;2022-09-17T04:58:05;11.50;99.90
2967;DHT22;1493;51.496;7.210;2022-09-17T05:00:31;11.40;99.90
2967;DHT22;1493;51.496;7.210;2022-09-17T05:02:59;11.40;99.90
2967;DHT22;1493;51.496;7.210;2022-09-17T05:05:28;11.50;99.90
2967;DHT22;1493;51.496;7.210;2022-09-17T05:07:54;11.40;99.90
2967;DHT22;1493;51.496;7.210;2022-09-17T05:10:22;11.40;99.90
2967;DHT22;1493;51.496;7.210;2022-09-17T05:12:50;11.50;99.90
2967;DHT22;1493;51.496;7.210;2022-09-17T05:15:18;11.50;99.90
2967;DHT22;1493;51.496;7.210;2022-09-17T05:17:45;11.50;99.90
2967;DHT22;1493;51.496;7.210;2022-09-17T05:20:12;11.50;99.90
2967;DHT22;1493;51.496;7.210;2022-09-17T05:22:42;11.40;99.90
2967;DHT22;1493;51.496;7.210;2022-09-17T05:25:10;11.50;99.90
2967;DHT22;1493;51.496;7.210;2022-09-17T05:27:38;11.50;99.90
2967;DHT22;1493;51.496;7.210;2022-09-17T05:30:06;11.50;99.90
2967;DHT22;1493;51.496;7.210;2022-09-17T05:32:33;11.50;99.90
2967;DHT22;1493;51.496;7.210;2022-09-17T05:35:00;11.50;99.90
2967;DHT22;1493;51.496;7.210;2022-09-17T05:37:26;11.60;99.90
2967;DHT22;1493;51.496;7.210;2022-09-17T05:39:55;11.60;99.90
2967;DHT22;1493;51.496;7.210;2022-09-17T05:42:21;11.70;99.90
2967;DHT22;1493;51.496;7.210;2022-09-17T05:44:48;11.60;99.90
2967;DHT22;1493;51.496;7.210;2022-09-17T05:47:15;11.70;99.90
2967;DHT22;1493;51.496;7.210;2022-09-17T05:49:42;11.70;99.90
2967;DHT22;1493;51.496;7.210;2022-09-17T05:52:09;11.70;99.90
2967;DHT22;1493;51.496;7.210;2022-09-17T05:54:35;11.70;99.90
2967;DHT22;1493;51.496;7.210;2022-09-17T05:57:04;11.70;99.90
2967;DHT22;1493;51.496;7.210;2022-09-17T05:59:31;11.80;99.90
2967;DHT22;1493;51.496;7.210;2022-09-17T06:01:58;11.80;99.90
2967;DHT22;1493;51.496;7.210;2022-09-17T06:04:25;11.80;99.90
2967;DHT22;1493;51.496;7.210;2022-09-17T06:06:52;11.70;99.90
2967;DHT22;1493;51.496;7.210;2022-09-17T06:09:19;11.80;99.90
2967;DHT22;1493;51.496;7.210;2022-09-17T06:11:46;11.80;99.90
2967;DHT22;1493;51.496;7.210;2022-09-17T06:14:14;11.80;99.90
2967;DHT22;1493;51.496;7.210;2022-09-17T06:16:41;11.90;99.90
2967;DHT22;1493;51.496;7.210;2022-09-17T06:19:08;11.90;99.90
2967;DHT22;1493;51.496;7.210;2022-09-17T06:21:34;11.80;99.90
2967;DHT22;1493;51.496;7.210;2022-09-17T06:24:01;11.80;99.90
2967;DHT22;1493;51.496;7.210;2022-09-17T06:26:28;11.80;99.90
2967;DHT22;1493;51.496;7.210;2022-09-17T06:28:57;11.70;99.90
2967;DHT22;1493;51.496;7.210;2022-09-17T06:31:26;11.60;99.90
2967;DHT22;1493;51.496;7.210;2022-09-17T06:33:54;11.70;99.90
2967;DHT22;1493;51.496;7.210;2022-09-17T06:36:21;11.60;99.90
2967;DHT22;1493;51.496;7.210;2022-09-17T06:38:48;11.70;99.90
2967;DHT22;1493;51.496;7.210;2022-09-17T06:41:15;11.70;99.90
2967;DHT22;1493;51.496;7.210;2022-09-17T06:43:42;11.70;99.90
2967;DHT22;1493;51.496;7.210;2022-09-17T06:46:10;11.70;99.90
2967;DHT22;1493;51.496;7.210;2022-09-17T06:48:38;11.80;99.90
2967;DHT22;1493;51.496;7.210;2022-09-17T06:51:06;11.80;99.90
2967;DHT22;1493;51.496;7.210;2022-09-17T06:53:34;11.80;99.90
2967;DHT22;1493;51.496;7.210;2022-09-17T06:56:02;11.70;99.90
2967;DHT22;1493;51.496;7.210;2022-09-17T06:58:30;11.70;99.90
2967;DHT22;1493;51.496;7.210;2022-09-17T07:00:58;11.60;99.90
2967;DHT22;1493;51.496;7.210;2022-09-17T07:03:25;11.80;99.90
2967;DHT22;1493;51.496;7.210;2022-09-17T07:05:54;11.90;99.90
2967;DHT22;1493;51.496;7.210;2022-09-17T07:08:20;11.90;99.90
2967;DHT22;1493;51.496;7.210;2022-09-17T07:10:47;11.90;99.90
2967;DHT22;1493;51.496;7.210;2022-09-17T07:13:14;11.90;99.90
2967;DHT22;1493;51.496;7.210;2022-09-17T07:15:41;11.80;99.90
2967;DHT22;1493;51.496;7.210;2022-09-17T07:18:08;11.80;99.90
2967;DHT22;1493;51.496;7.210;2022-09-17T07:20:35;11.90;99.90
2967;DHT22;1493;51.496;7.210;2022-09-17T07:23:04;11.90;99.90
2967;DHT22;1493;51.496;7.210;2022-09-17T07:25:31;11.80;99.90
2967;DHT22;1493;51.496;7.210;2022-09-17T07:27:58;11.80;99.90
2967;DHT22;1493;51.496;7.210;2022-09-17T07:30:25;11.80;99.90
2967;DHT22;1493;51.496;7.210;2022-09-17T07:32:52;11.80;99.90
2967;DHT22;1493;51.496;7.210;2022-09-17T07:35:19;11.90;99.90
2967;DHT22;1493;51.496;7.210;2022-09-17T07:37:45;11.90;99.90
2967;DHT22;1493;51.496;7.210;2022-09-17T07:40:14;12.00;99.90
2967;DHT22;1493;51.496;7.210;2022-09-17T07:42:45;12.10;99.90
2967;DHT22;1493;51.496;7.210;2022-09-17T07:45:16;12.00;99.90
2967;DHT22;1493;51.496;7.210;2022-09-17T07:47:42;12.00;99.90
2967;DHT22;1493;51.496;7.210;2022-09-17T07:50:09;12.10;99.90
2967;DHT22;1493;51.496;7.210;2022-09-17T07:52:57;12.20;99.90
2967;DHT22;1493;51.496;7.210;2022-09-17T07:55:27;12.30;99.90
2967;DHT22;1493;51.496;7.210;2022-09-17T07:57:57;12.50;99.90
2967;DHT22;1493;51.496;7.210;2022-09-17T08:00:24;12.60;99.90
2967;DHT22;1493;51.496;7.210;2022-09-17T08:02:53;12.70;99.90
2967;DHT22;1493;51.496;7.210;2022-09-17T08:05:24;12.90;99.90
2967;DHT22;1493;51.496;7.210;2022-09-17T08:07:51;12.90;99.90
2967;DHT22;1493;51.496;7.210;2022-09-17T08:10:19;13.00;99.90
2967;DHT22;1493;51.496;7.210;2022-09-17T08:12:49;13.00;99.90
2967;DHT22;1493;51.496;7.210;2022-09-17T08:15:17;12.90;99.90
2967;DHT22;1493;51.496;7.210;2022-09-17T08:17:44;12.90;99.90
2967;DHT22;1493;51.496;7.210;2022-09-17T08:20:11;12.80;99.90
2967;DHT22;1493;51.496;7.210;2022-09-17T08:22:38;12.80;99.90
2967;DHT22;1493;51.496;7.210;2022-09-17T08:25:06;12.80;99.90
2967;DHT22;1493;51.496;7.210;2022-09-17T08:27:39;12.90;99.90
2967;DHT22;1493;51.496;7.210;2022-09-17T08:30:10;12.90;99.90
2967;DHT22;1493;51.496;7.210;2022-09-17T08:32:37;12.90;99.90
2967;DHT22;1493;51.496;7.210;2022-09-17T08:35:07;13.10;99.90
2967;DHT22;1493;51.496;7.210;2022-09-17T08:37:37;13.00;99.90
2967;DHT22;1493;51.496;7.210;2022-09-17T08:40:04;12.90;99.90
2967;DHT22;1493;51.496;7.210;2022-09-17T08:42:36;13.00;99.90
2967;DHT22;1493;51.496;7.210;2022-09-17T08:45:08;13.00;99.90
2967;DHT22;1493;51.496;7.210;2022-09-17T08:47:39;13.10;99.90
2967;DHT22;1493;51.496;7.210;2022-09-17T08:50:13;13.10;99.90
2967;DHT22;1493;51.496;7.210;2022-09-17T08:53:13;13.10;99.90
2967;DHT22;1493;51.496;7.210;2022-09-17T08:55:52;13.40;99.90
2967;DHT22;1493;51.496;7.210;2022-09-17T09:01:23;13.70;99.90
2967;DHT22;1493;51.496;7.210;2022-09-17T09:04:32;13.80;99.90
2967;DHT22;1493;51.496;7.210;2022-09-17T09:07:05;14.00;99.90
2967;DHT22;1493;51.496;7.210;2022-09-17T09:09:36;14.30;99.90
2967;DHT22;1493;51.496;7.210;2022-09-17T09:12:12;14.30;99.90
2967;DHT22;1493;51.496;7.210;2022-09-17T09:14:47;14.60;99.90
2967;DHT22;1493;51.496;7.210;2022-09-17T09:17:18;14.80;99.90
2967;DHT22;1493;51.496;7.210;2022-09-17T09:19:48;15.00;99.90
2967;DHT22;1493;51.496;7.210;2022-09-17T09:22:36;15.00;99.90
2967;DHT22;1493;51.496;7.210;2022-09-17T09:25:15;15.00;99.90
2967;DHT22;1493;51.496;7.210;2022-09-17T09:27:47;15.40;99.90
2967;DHT22;1493;51.496;7.210;2022-09-17T09:30:16;15.80;99.90
2967;DHT22;1493;51.496;7.210;2022-09-17T09:32:55;16.10;99.90
2967;DHT22;1493;51.496;7.210;2022-09-17T09:35:26;16.30;99.90
2967;DHT22;1493;51.496;7.210;2022-09-17T09:37:56;16.40;99.90
2967;DHT22;1493;51.496;7.210;2022-09-17T09:40:33;16.20;99.90
2967;DHT22;1493;51.496;7.210;2022-09-17T09:43:08;15.90;99.90
2967;DHT22;1493;51.496;7.210;2022-09-17T09:45:50;16.20;99.90
2967;DHT22;1493;51.496;7.210;2022-09-17T09:48:26;16.00;99.90
2967;DHT22;1493;51.496;7.210;2022-09-17T09:51:16;16.10;99.90
2967;DHT22;1493;51.496;7.210;2022-09-17T09:53:57;16.00;99.90
2967;DHT22;1493;51.496;7.210;2022-09-17T09:56:40;16.40;99.90
2967;DHT22;1493;51.496;7.210;2022-09-17T09:59:10;16.60;99.90
2967;DHT22;1493;51.496;7.210;2022-09-17T10:01:40;17.00;99.90
2967;DHT22;1493;51.496;7.210;2022-09-17T10:04:16;17.10;99.90
2967;DHT22;1493;51.496;7.210;2022-09-17T10:06:45;17.10;99.90
2967;DHT22;1493;51.496;7.210;2022-09-17T10:09:13;16.90;99.90
2967;DHT22;1493;51.496;7.210;2022-09-17T10:11:41;16.60;99.90
2967;DHT22;1493;51.496;7.210;2022-09-17T10:14:22;16.70;99.90
2967;DHT22;1493;51.496;7.210;2022-09-17T10:19:42;17.70;99.90
2967;DHT22;1493;51.496;7.210;2022-09-17T10:22:29;18.20;99.90
2967;DHT22;1493;51.496;7.210;2022-09-17T10:24:58;17.80;99.90
2967;DHT22;1493;51.496;7.210;2022-09-17T10:27:26;17.50;99.90
2967;DHT22;1493;51.496;7.210;2022-09-17T10:30:03;17.70;99.90
2967;DHT22;1493;51.496;7.210;2022-09-17T10:32:39;17.70;99.90
2967;DHT22;1493;51.496;7.210;2022-09-17T10:35:25;18.00;99.90
2967;DHT22;1493;51.496;7.210;2022-09-17T10:37:54;18.00;99.90
2967;DHT22;1493;51.496;7.210;2022-09-17T10:40:27;18.40;99.90
2967;DHT22;1493;51.496;7.210;2022-09-17T10:43:17;18.30;99.90
2967;DHT22;1493;51.496;7.210;2022-09-17T10:45:54;18.10;99.90
2967;DHT22;1493;51.496;7.210;2022-09-17T10:48:22;18.20;99.90
2967;DHT22;1493;51.496;7.210;2022-09-17T10:50:53;17.80;99.90
2967;DHT22;1493;51.496;7.210;2022-09-17T10:53:24;17.30;99.90
2967;DHT22;1493;51.496;7.210;2022-09-17T10:55:58;16.70;99.90
2967;DHT22;1493;51.496;7.210;2022-09-17T10:58:42;16.40;99.90
2967;DHT22;1493;51.496;7.210;2022-09-17T11:01:22;16.10;99.90
2967;DHT22;1493;51.496;7.210;2022-09-17T11:04:20;16.00;99.90
2967;DHT22;1493;51.496;7.210;2022-09-17T11:07:08;16.40;99.90
2967;DHT22;1493;51.496;7.210;2022-09-17T11:09:46;16.80;99.90
2967;DHT22;1493;51.496;7.210;2022-09-17T11:12:28;17.20;99.90
2967;DHT22;1493;51.496;7.210;2022-09-17T11:15:02;17.20;99.90
2967;DHT22;1493;51.496;7.210;2022-09-17T11:17:45;16.50;99.90
2967;DHT22;1493;51.496;7.210;2022-09-17T11:20:28;16.00;99.90
2967;DHT22;1493;51.496;7.210;2022-09-17T11:23:08;15.30;99.90
2967;DHT22;1493;51.496;7.210;2022-09-17T11:25:45;14.80;99.90
2967;DHT22;1493;51.496;7.210;2022-09-17T11:31:13;13.60;99.90
2967;DHT22;1493;51.496;7.210;2022-09-17T11:33:55;13.40;99.90
2967;DHT22;1493;51.496;7.210;2022-09-17T11:36:35;13.30;99.90
2967;DHT22;1493;51.496;7.210;2022-09-17T11:39:12;13.50;99.90
2967;DHT22;1493;51.496;7.210;2022-09-17T11:41:49;14.20;99.90
2967;DHT22;1493;51.496;7.210;2022-09-17T11:44:22;14.70;99.90
2967;DHT22;1493;51.496;7.210;2022-09-17T11:46:53;15.30;99.90
2967;DHT22;1493;51.496;7.210;2022-09-17T11:49:29;16.00;99.90
2967;DHT22;1493;51.496;7.210;2022-09-17T11:52:02;16.70;99.90
2967;DHT22;1493;51.496;7.210;2022-09-17T11:54:36;17.20;99.90
2967;DHT22;1493;51.496;7.210;2022-09-17T11:57:13;17.90;99.90
2967;DHT22;1493;51.496;7.210;2022-09-17T11:59:45;18.20;99.90
2967;DHT22;1493;51.496;7.210;2022-09-17T12:02:20;18.40;99.90
2967;DHT22;1493;51.496;7.210;2022-09-17T12:04:54;18.60;99.90
2967;DHT22;1493;51.496;7.210;2022-09-17T12:07:35;18.90;99.90
2967;DHT22;1493;51.496;7.210;2022-09-17T12:10:25;19.30;99.90
2967;DHT22;1493;51.496;7.210;2022-09-17T12:12:58;19.50;99.90
2967;DHT22;1493;51.496;7.210;2022-09-17T12:15:28;19.50;99.90
2967;DHT22;1493;51.496;7.210;2022-09-17T12:18:06;19.60;99.90
2967;DHT22;1493;51.496;7.210;2022-09-17T12:20:35;19.00;99.90
2967;DHT22;1493;51.496;7.210;2022-09-17T12:23:08;18.30;99.90
2967;DHT22;1493;51.496;7.210;2022-09-17T12:25:41;17.60;99.90
2967;DHT22;1493;51.496;7.210;2022-09-17T12:28:16;17.50;99.90
2967;DHT22;1493;51.496;7.210;2022-09-17T12:30:51;17.00;99.90
2967;DHT22;1493;51.496;7.210;2022-09-17T12:33:26;16.70;99.90
2967;DHT22;1493;51.496;7.210;2022-09-17T12:36:09;16.50;99.90
2967;DHT22;1493;51.496;7.210;2022-09-17T12:39:13;16.60;99.90
2967;DHT22;1493;51.496;7.210;2022-09-17T12:41:46;17.30;99.90
2967;DHT22;1493;51.496;7.210;2022-09-17T12:44:35;18.10;99.90
2967;DHT22;1493;51.496;7.210;2022-09-17T12:47:22;18.10;99.90
2967;DHT22;1493;51.496;7.210;2022-09-17T12:50:07;18.20;99.90
2967;DHT22;1493;51.496;7.210;2022-09-17T12:52:50;18.70;99.90
2967;DHT22;1493;51.496;7.210;2022-09-17T12:55:33;19.40;99.90
2967;DHT22;1493;51.496;7.210;2022-09-17T12:58:08;19.90;99.90
2967;DHT22;1493;51.496;7.210;2022-09-17T13:00:42;20.40;99.90
2967;DHT22;1493;51.496;7.210;2022-09-17T13:03:18;20.50;99.90
2967;DHT22;1493;51.496;7.210;2022-09-17T13:06:06;20.60;99.90
2967;DHT22;1493;51.496;7.210;2022-09-17T13:08:56;20.80;99.90
2967;DHT22;1493;51.496;7.210;2022-09-17T13:11:45;20.90;99.90
2967;DHT22;1493;51.496;7.210;2022-09-17T13:14:21;20.10;99.90
2967;DHT22;1493;51.496;7.210;2022-09-17T13:16:54;19.40;99.90
2967;DHT22;1493;51.496;7.210;2022-09-17T13:19:32;18.60;99.90
2967;DHT22;1493;51.496;7.210;2022-09-17T13:22:04;17.70;99.90
2967;DHT22;1493;51.496;7.210;2022-09-17T13:24:32;17.20;99.90
2967;DHT22;1493;51.496;7.210;2022-09-17T13:27:02;17.10;99.90
2967;DHT22;1493;51.496;7.210;2022-09-17T13:30:00;16.90;99.90
2967;DHT22;1493;51.496;7.210;2022-09-17T13:32:52;16.30;99.90
2967;DHT22;1493;51.496;7.210;2022-09-17T13:38:21;15.60;99.90
2967;DHT22;1493;51.496;7.210;2022-09-17T13:40:48;15.40;99.90
2967;DHT22;1493;51.496;7.210;2022-09-17T13:43:18;15.20;99.90
2967;DHT22;1493;51.496;7.210;2022-09-17T13:46:10;14.80;99.90
2967;DHT22;1493;51.496;7.210;2022-09-17T13:48:49;14.20;99.90
2967;DHT22;1493;51.496;7.210;2022-09-17T13:51:45;14.00;99.90
2967;DHT22;1493;51.496;7.210;2022-09-17T13:54:14;13.50;99.90
2967;DHT22;1493;51.496;7.210;2022-09-17T13:56:45;13.30;99.90
2967;DHT22;1493;51.496;7.210;2022-09-17T13:59:15;13.20;99.90
2967;DHT22;1493;51.496;7.210;2022-09-17T14:02:26;13.10;99.90
2967;DHT22;1493;51.496;7.210;2022-09-17T14:04:55;13.10;99.90
2967;DHT22;1493;51.496;7.210;2022-09-17T14:07:45;13.10;99.90
2967;DHT22;1493;51.496;7.210;2022-09-17T14:10:33;13.60;99.90
2967;DHT22;1493;51.496;7.210;2022-09-17T14:13:27;13.90;99.90
2967;DHT22;1493;51.496;7.210;2022-09-17T14:16:00;14.40;99.90
2967;DHT22;1493;51.496;7.210;2022-09-17T14:18:41;14.40;99.90
2967;DHT22;1493;51.496;7.210;2022-09-17T14:21:26;14.80;99.90
2967;DHT22;1493;51.496;7.210;2022-09-17T14:23:55;15.10;99.90
2967;DHT22;1493;51.496;7.210;2022-09-17T14:26:44;15.20;99.90
2967;DHT22;1493;51.496;7.210;2022-09-17T14:29:23;15.30;99.90
2967;DHT22;1493;51.496;7.210;2022-09-17T14:31:55;15.20;99.90
2967;DHT22;1493;51.496;7.210;2022-09-17T14:34:26;15.20;99.90
2967;DHT22;1493;51.496;7.210;2022-09-17T14:37:14;15.10;99.90
2967;DHT22;1493;51.496;7.210;2022-09-17T14:39:45;15.10;99.90
2967;DHT22;1493;51.496;7.210;2022-09-17T14:42:18;15.30;99.90
2967;DHT22;1493;51.496;7.210;2022-09-17T14:44:51;15.20;99.90
2967;DHT22;1493;51.496;7.210;2022-09-17T14:47:20;15.00;99.90
2967;DHT22;1493;51.496;7.210;2022-09-17T14:49:48;15.00;99.90
2967;DHT22;1493;51.496;7.210;2022-09-17T14:52:34;15.10;99.90
2967;DHT22;1493;51.496;7.210;2022-09-17T14:55:15;15.20;99.90
2967;DHT22;1493;51.496;7.210;2022-09-17T14:57:43;15.30;99.90
2967;DHT22;1493;51.496;7.210;2022-09-17T15:00:17;15.30;99.90
2967;DHT22;1493;51.496;7.210;2022-09-17T15:02:53;15.40;99.90
2967;DHT22;1493;51.496;7.210;2022-09-17T15:05:26;15.30;99.90
2967;DHT22;1493;51.496;7.210;2022-09-17T15:08:06;15.10;99.90
2967;DHT22;1493;51.496;7.210;2022-09-17T15:10:35;15.00;99.90
2967;DHT22;1493;51.496;7.210;2022-09-17T15:13:11;14.90;99.90
2967;DHT22;1493;51.496;7.210;2022-09-17T15:15:39;14.90;99.90
2967;DHT22;1493;51.496;7.210;2022-09-17T15:18:06;14.90;99.90
2967;DHT22;1493;51.496;7.210;2022-09-17T15:20:33;15.00;99.90
2967;DHT22;1493;51.496;7.210;2022-09-17T15:23:09;14.90;99.90
2967;DHT22;1493;51.496;7.210;2022-09-17T15:25:41;14.70;99.90
2967;DHT22;1493;51.496;7.210;2022-09-17T15:28:18;14.90;99.90
2967;DHT22;1493;51.496;7.210;2022-09-17T15:30:49;15.00;99.90
2967;DHT22;1493;51.496;7.210;2022-09-17T15:33:16;14.80;99.90
2967;DHT22;1493;51.496;7.210;2022-09-17T15:35:58;14.70;99.90
2967;DHT22;1493;51.496;7.210;2022-09-17T15:38:28;14.60;99.90
2967;DHT22;1493;51.496;7.210;2022-09-17T15:41:17;14.50;99.90
2967;DHT22;1493;51.496;7.210;2022-09-17T15:43:46;14.30;99.90
2967;DHT22;1493;51.496;7.210;2022-09-17T15:46:22;14.30;99.90
2967;DHT22;1493;51.496;7.210;2022-09-17T15:48:51;14.20;99.90
2967;DHT22;1493;51.496;7.210;2022-09-17T15:51:23;14.10;99.90
2967;DHT22;1493;51.496;7.210;2022-09-17T15:53:53;14.10;99.90
2967;DHT22;1493;51.496;7.210;2022-09-17T15:56:22;14.10;99.90
2967;DHT22;1493;51.496;7.210;2022-09-17T15:59:00;14.20;99.90
2967;DHT22;1493;51.496;7.210;2022-09-17T16:01:51;14.20;99.90
2967;DHT22;1493;51.496;7.210;2022-09-17T16:04:25;14.20;99.90
2967;DHT22;1493;51.496;7.210;2022-09-17T16:07:00;14.20;99.90
2967;DHT22;1493;51.496;7.210;2022-09-17T16:09:40;14.10;99.90
2967;DHT22;1493;51.496;7.210;2022-09-17T16:12:10;14.10;99.90
2967;DHT22;1493;51.496;7.210;2022-09-17T16:14:38;14.20;99.90
2967;DHT22;1493;51.496;7.210;2022-09-17T16:17:17;14.10;99.90
2967;DHT22;1493;51.496;7.210;2022-09-17T16:19:45;14.00;99.90
2967;DHT22;1493;51.496;7.210;2022-09-17T16:22:12;13.90;99.90
2967;DHT22;1493;51.496;7.210;2022-09-17T16:24:40;13.90;99.90
2967;DHT22;1493;51.496;7.210;2022-09-17T16:27:11;13.80;99.90
2967;DHT22;1493;51.496;7.210;2022-09-17T16:29:41;13.80;99.90
2967;DHT22;1493;51.496;7.210;2022-09-17T16:32:09;13.70;99.90
2967;DHT22;1493;51.496;7.210;2022-09-17T16:34:36;13.50;99.90
2967;DHT22;1493;51.496;7.210;2022-09-17T16:37:03;13.50;99.90
2967;DHT22;1493;51.496;7.210;2022-09-17T16:39:30;13.40;99.90
2967;DHT22;1493;51.496;7.210;2022-09-17T16:41:58;13.20;99.90
2967;DHT22;1493;51.496;7.210;2022-09-17T16:44:25;13.30;99.90
2967;DHT22;1493;51.496;7.210;2022-09-17T16:46:52;13.20;99.90
2967;DHT22;1493;51.496;7.210;2022-09-17T16:49:18;13.20;99.90
2967;DHT22;1493;51.496;7.210;2022-09-17T16:51:45;13.30;99.90